createdAt,value
2022-09-15T00:01:18.273Z,13.55
2022-09-15T00:03:47.520Z,13.53
2022-09-15T00:06:15.864Z,13.48
2022-09-15T00:08:44.758Z,13.40
2022-09-15T00:11:17.444Z,13.35
2022-09-15T00:13:45.612Z,13.31
2022-09-15T00:16:15.379Z,13.27
2022-09-15T00:18:45.264Z,13.25
2022-09-15T00:21:17.495Z,13.25
2022-09-15T00:23:46.049Z,13.25
2022-09-15T00:26:16.371Z,13.24
2022-09-15T00:28:44.385Z,13.23
2022-09-15T00:31:15.946Z,13.21
2022-09-15T00:33:47.606Z,13.17
2022-09-15T00:36:16.267Z,13.18
2022-09-15T00:38:44.505Z,13.21
2022-09-15T00:41:14.431Z,13.21
2022-09-15T00:43:54.360Z,13.22
2022-09-15T00:46:25.130Z,13.22
2022-09-15T00:48:59.068Z,13.22
2022-09-15T00:51:52.770Z,13.22
2022-09-15T00:54:27.011Z,13.22
2022-09-15T00:57:00.192Z,13.22
2022-09-15T00:59:30.096Z,13.24
2022-09-15T01:02:33.015Z,13.29
2022-09-15T01:05:03.013Z,13.34
2022-09-15T01:07:37.968Z,13.37
2022-09-15T01:10:15.980Z,13.40
2022-09-15T01:12:43.760Z,13.40
2022-09-15T01:15:11.443Z,13.40
2022-09-15T01:17:57.936Z,13.39
2022-09-15T01:20:47.665Z,13.38
2022-09-15T01:23:37.060Z,13.38
2022-09-15T01:26:25.356Z,13.38
2022-09-15T01:29:11.767Z,13.36
2022-09-15T01:32:10.738Z,13.34
2022-09-15T01:34:48.887Z,13.32
2022-09-15T01:37:26.656Z,13.27
2022-09-15T01:39:56.736Z,13.23
2022-09-15T01:42:25.418Z,13.19
2022-09-15T01:45:00.639Z,13.18
2022-09-15T01:47:30.265Z,13.16
2022-09-15T01:50:11.793Z,13.12
2022-09-15T01:52:47.036Z,13.07
2022-09-15T01:55:20.950Z,13.01
2022-09-15T01:57:49.122Z,12.97
2022-09-15T02:00:16.811Z,12.96
2022-09-15T02:03:04.224Z,12.94
2022-09-15T02:05:48.627Z,12.95
2022-09-15T02:08:25.576Z,12.93
2022-09-15T02:10:58.799Z,12.90
2022-09-15T02:13:39.560Z,12.88
2022-09-15T02:16:20.111Z,12.85
2022-09-15T02:18:58.771Z,12.83
2022-09-15T02:21:33.983Z,12.83
2022-09-15T02:24:11.999Z,12.84
2022-09-15T02:26:42.376Z,12.82
2022-09-15T02:29:17.667Z,12.82
2022-09-15T02:31:48.330Z,12.80
2022-09-15T02:34:27.248Z,12.78
2022-09-15T02:36:55.442Z,12.76
2022-09-15T02:39:27.871Z,12.77
2022-09-15T02:41:55.883Z,12.75
2022-09-15T02:44:23.475Z,12.73
2022-09-15T02:46:51.381Z,12.70
2022-09-15T02:49:20.143Z,12.68
2022-09-15T02:51:47.912Z,12.65
2022-09-15T02:54:15.529Z,12.61
2022-09-15T02:56:43.734Z,12.59
2022-09-15T02:59:11.245Z,12.56
2022-09-15T03:01:38.898Z,12.54
2022-09-15T03:04:07.643Z,12.53
2022-09-15T03:06:36.143Z,12.50
2022-09-15T03:09:07.175Z,12.47
2022-09-15T03:11:36.676Z,12.45
2022-09-15T03:14:06.163Z,12.44
2022-09-15T03:16:35.679Z,12.44
2022-09-15T03:19:04.115Z,12.43
2022-09-15T03:21:31.739Z,12.41
2022-09-15T03:24:00.690Z,12.39
2022-09-15T03:26:28.262Z,12.38
2022-09-15T03:28:55.949Z,12.37
2022-09-15T03:31:23.765Z,12.36
2022-09-15T03:33:54.719Z,12.34
2022-09-15T03:36:22.365Z,12.35
2022-09-15T03:38:50.031Z,12.34
2022-09-15T03:41:19.027Z,12.34
2022-09-15T03:43:46.555Z,12.37
2022-09-15T03:46:14.786Z,12.39
2022-09-15T03:48:42.438Z,12.38
2022-09-15T03:51:10.986Z,12.37
2022-09-15T03:53:40.768Z,12.37
2022-09-15T03:56:26.004Z,12.39
2022-09-15T03:58:54.262Z,12.42
2022-09-15T04:01:23.592Z,12.46
2022-09-15T04:03:51.804Z,12.45
2022-09-15T04:06:21.646Z,12.44
2022-09-15T04:08:50.324Z,12.45
2022-09-15T04:11:20.159Z,12.42
2022-09-15T04:13:48.910Z,12.38
2022-09-15T04:16:25.503Z,12.36
2022-09-15T04:18:55.229Z,12.32
2022-09-15T04:21:25.230Z,12.27
2022-09-15T04:23:54.061Z,12.25
2022-09-15T04:26:27.420Z,12.21
2022-09-15T04:28:54.969Z,12.17
2022-09-15T04:31:23.182Z,12.14
2022-09-15T04:33:55.646Z,12.14
2022-09-15T04:36:25.982Z,12.15
2022-09-15T04:38:53.554Z,12.17
2022-09-15T04:41:21.755Z,12.18
2022-09-15T04:43:49.854Z,12.19
2022-09-15T04:46:18.575Z,12.21
2022-09-15T04:48:48.098Z,12.22
2022-09-15T04:51:20.707Z,12.25
2022-09-15T04:53:49.060Z,12.28
2022-09-15T04:56:23.102Z,12.32
2022-09-15T04:58:55.181Z,12.36
2022-09-15T05:01:28.539Z,12.39
2022-09-15T05:03:56.752Z,12.43
2022-09-15T05:06:27.035Z,12.44
2022-09-15T05:08:56.732Z,12.47
2022-09-15T05:11:25.701Z,12.50
2022-09-15T05:13:53.658Z,12.50
2022-09-15T05:16:24.109Z,12.53
2022-09-15T05:18:54.270Z,12.56
2022-09-15T05:21:23.426Z,12.60
2022-09-15T05:23:53.990Z,12.63
2022-09-15T05:26:25.843Z,12.64
2022-09-15T05:28:55.367Z,12.64
2022-09-15T05:31:26.573Z,12.65
2022-09-15T05:33:55.490Z,12.69
2022-09-15T05:36:25.451Z,12.72
2022-09-15T05:38:56.481Z,12.75
2022-09-15T05:41:25.736Z,12.78
2022-09-15T05:43:57.229Z,12.78
2022-09-15T05:46:26.466Z,12.80
2022-09-15T05:48:56.540Z,12.83
2022-09-15T05:51:24.603Z,12.87
2022-09-15T05:53:52.619Z,12.93
2022-09-15T05:56:20.768Z,13.01
2022-09-15T05:58:49.920Z,13.07
2022-09-15T06:01:29.937Z,13.14
2022-09-15T06:03:58.871Z,13.19
2022-09-15T06:06:27.119Z,13.25
2022-09-15T06:08:58.748Z,13.28
2022-09-15T06:11:29.933Z,13.30
2022-09-15T06:14:03.498Z,13.32
2022-09-15T06:16:35.588Z,13.36
2022-09-15T06:19:04.251Z,13.43
2022-09-15T06:21:33.527Z,13.52
2022-09-15T06:24:07.335Z,13.60
2022-09-15T06:26:35.139Z,13.66
2022-09-15T06:29:05.180Z,13.74
2022-09-15T06:31:34.524Z,13.79
2022-09-15T06:34:04.242Z,13.85
2022-09-15T06:36:32.362Z,13.93
2022-09-15T06:39:00.122Z,14.02
2022-09-15T06:41:47.154Z,14.09
2022-09-15T06:44:21.468Z,14.12
2022-09-15T06:46:49.446Z,14.14
2022-09-15T06:49:17.388Z,14.16
2022-09-15T06:51:45.455Z,14.18
2022-09-15T06:54:16.159Z,14.19
2022-09-15T06:56:45.021Z,14.17
2022-09-15T06:59:15.572Z,14.11
2022-09-15T07:02:05.059Z,14.11
2022-09-15T07:04:36.870Z,14.15
2022-09-15T07:07:04.740Z,14.20
2022-09-15T07:09:32.612Z,14.23
2022-09-15T07:12:00.466Z,14.28
2022-09-15T07:14:28.337Z,14.34
2022-09-15T07:16:56.057Z,14.42
2022-09-15T07:19:23.903Z,14.47
2022-09-15T07:25:16.123Z,14.63
2022-09-15T07:27:43.843Z,14.69
2022-09-15T07:30:14.354Z,14.76
2022-09-15T07:32:42.074Z,14.81
2022-09-15T07:35:10.122Z,14.88
2022-09-15T07:37:37.775Z,14.94
2022-09-15T07:40:06.222Z,15.03
2022-09-15T07:42:35.575Z,15.14
2022-09-15T07:45:03.715Z,15.24
2022-09-15T07:47:31.323Z,15.31
2022-09-15T07:49:59.038Z,15.37
2022-09-15T07:52:27.155Z,15.43
2022-09-15T07:54:55.279Z,15.53
2022-09-15T07:57:22.949Z,15.67
2022-09-15T07:59:50.494Z,15.84
2022-09-15T08:02:20.041Z,16.00
2022-09-15T08:04:47.873Z,16.14
2022-09-15T08:07:15.499Z,16.25
2022-09-15T08:09:43.478Z,16.36
2022-09-15T08:12:11.319Z,16.47
2022-09-15T08:14:39.138Z,16.58
2022-09-15T08:17:11.260Z,16.69
2022-09-15T08:19:39.451Z,16.84
2022-09-15T08:22:07.075Z,16.95
2022-09-15T08:24:36.413Z,17.03
2022-09-15T08:27:04.140Z,17.13
2022-09-15T08:29:32.807Z,17.29
2022-09-15T08:32:06.207Z,17.47
2022-09-15T08:34:34.248Z,17.62
2022-09-15T08:37:02.337Z,17.78
2022-09-15T08:39:30.093Z,17.85
2022-09-15T08:42:01.602Z,17.88
2022-09-15T08:44:50.261Z,17.94
2022-09-15T08:47:42.645Z,18.04
2022-09-15T08:50:28.418Z,18.05
2022-09-15T08:53:02.320Z,18.08
2022-09-15T08:55:50.558Z,18.17
2022-09-15T08:58:20.038Z,18.29
2022-09-15T09:01:10.160Z,18.42
2022-09-15T09:03:44.581Z,18.60
2022-09-15T09:06:15.145Z,18.71
2022-09-15T09:09:01.788Z,18.78
2022-09-15T09:12:01.343Z,18.93
2022-09-15T09:14:32.018Z,19.13
2022-09-15T09:17:02.662Z,19.20
2022-09-15T09:19:54.303Z,19.01
2022-09-15T09:22:26.058Z,19.00
2022-09-15T09:24:56.927Z,19.17
2022-09-15T09:27:28.804Z,19.29
2022-09-15T09:30:17.911Z,19.34
2022-09-15T09:33:01.403Z,19.24
2022-09-15T09:35:36.334Z,19.02
2022-09-15T09:38:04.419Z,18.76
2022-09-15T09:40:33.853Z,18.59
2022-09-15T09:43:01.670Z,18.54
2022-09-15T09:45:29.372Z,18.73
2022-09-15T09:48:18.159Z,18.91
2022-09-15T09:50:46.616Z,19.02
2022-09-15T09:53:33.867Z,19.04
2022-09-15T09:56:22.843Z,19.02
2022-09-15T09:58:51.570Z,18.90
2022-09-15T10:01:21.948Z,18.81
2022-09-15T10:03:49.745Z,18.79
2022-09-15T10:06:23.254Z,18.90
2022-09-15T10:09:09.888Z,18.95
2022-09-15T10:11:58.949Z,18.90
2022-09-15T10:14:29.557Z,18.85
2022-09-15T10:17:19.653Z,18.99
2022-09-15T10:19:54.311Z,19.27
2022-09-15T10:22:40.469Z,19.37
2022-09-15T10:25:35.670Z,19.41
2022-09-15T10:28:17.265Z,19.68
2022-09-15T10:31:03.758Z,19.70
2022-09-15T10:33:40.754Z,19.67
2022-09-15T10:36:30.883Z,19.65
2022-09-15T10:39:32.395Z,19.60
2022-09-15T10:42:29.215Z,19.60
2022-09-15T10:45:28.725Z,19.62
2022-09-15T10:47:59.140Z,19.73
2022-09-15T10:50:58.746Z,19.90
2022-09-15T10:53:47.665Z,20.31
2022-09-15T10:56:34.229Z,20.56
2022-09-15T10:59:28.061Z,20.71
2022-09-15T11:02:14.642Z,20.67
2022-09-15T11:04:58.610Z,20.56
2022-09-15T11:07:58.163Z,20.55
2022-09-15T11:10:37.677Z,20.52
2022-09-15T11:13:08.347Z,20.56
2022-09-15T11:16:07.995Z,20.68
2022-09-15T11:19:05.518Z,20.49
2022-09-15T11:21:36.066Z,20.19
2022-09-15T11:24:35.693Z,19.97
2022-09-15T11:27:25.431Z,19.70
2022-09-15T11:30:04.497Z,19.49
2022-09-15T11:32:43.028Z,19.42
2022-09-15T11:35:42.677Z,19.38
2022-09-15T11:38:30.839Z,19.30
2022-09-15T11:41:32.390Z,19.18
2022-09-15T11:44:23.014Z,19.07
2022-09-15T11:46:53.474Z,18.98
2022-09-15T11:49:32.142Z,18.95
2022-09-15T11:52:34.818Z,18.90
2022-09-15T11:55:30.005Z,18.80
2022-09-15T11:58:22.059Z,18.75
2022-09-15T12:01:03.346Z,18.69
2022-09-15T12:03:33.705Z,18.58
2022-09-15T12:06:09.940Z,18.52
2022-09-15T12:08:44.340Z,18.45
2022-09-15T12:11:20.790Z,18.39
2022-09-15T12:13:49.197Z,18.37
2022-09-15T12:16:18.764Z,18.34
2022-09-15T12:18:56.505Z,18.36
2022-09-15T12:21:37.434Z,18.45
2022-09-15T12:24:20.587Z,18.55
2022-09-15T12:26:48.630Z,18.62
2022-09-15T12:29:22.282Z,18.70
2022-09-15T12:32:24.782Z,18.82
2022-09-15T12:35:00.722Z,18.87
2022-09-15T12:37:52.411Z,18.91
2022-09-15T12:40:33.424Z,18.98
2022-09-15T12:43:22.984Z,19.08
2022-09-15T12:46:03.786Z,19.36
2022-09-15T12:48:35.632Z,19.63
2022-09-15T12:51:10.346Z,19.86
2022-09-15T12:53:53.529Z,20.20
2022-09-15T12:56:27.262Z,20.43
2022-09-15T12:58:55.828Z,20.90
2022-09-15T13:01:23.905Z,21.28
2022-09-15T13:03:53.964Z,21.11
2022-09-15T13:06:24.543Z,20.79
2022-09-15T13:09:23.990Z,20.36
2022-09-15T13:11:54.494Z,19.91
2022-09-15T13:14:37.631Z,19.58
2022-09-15T13:17:17.197Z,19.30
2022-09-15T13:19:47.906Z,19.10
2022-09-15T13:22:16.209Z,18.96
2022-09-15T13:25:01.542Z,18.85
2022-09-15T13:27:34.250Z,18.76
2022-09-15T13:30:20.541Z,18.69
2022-09-15T13:32:56.104Z,18.57
2022-09-15T13:35:55.635Z,18.45
2022-09-15T13:38:46.298Z,18.35
2022-09-15T13:41:33.200Z,18.26
2022-09-15T13:44:30.103Z,18.20
2022-09-15T13:47:16.377Z,18.14
2022-09-15T13:50:15.185Z,18.13
2022-09-15T13:52:56.200Z,18.18
2022-09-15T13:55:27.969Z,18.20
2022-09-15T14:00:58.078Z,18.21
2022-09-15T14:03:37.263Z,18.34
2022-09-15T14:06:24.235Z,18.59
2022-09-15T14:08:55.858Z,18.80
2022-09-15T14:11:32.142Z,18.75
2022-09-15T14:14:00.861Z,18.64
2022-09-15T14:16:34.357Z,18.49
2022-09-15T14:19:23.739Z,18.35
2022-09-15T14:21:56.221Z,18.21
2022-09-15T14:24:31.470Z,18.13
2022-09-15T14:27:08.586Z,18.05
2022-09-15T14:29:41.519Z,18.00
2022-09-15T14:32:14.921Z,17.98
2022-09-15T14:34:44.365Z,17.98
2022-09-15T14:37:19.807Z,18.03
2022-09-15T14:39:56.538Z,18.16
2022-09-15T14:42:35.622Z,18.71
2022-09-15T14:48:15.600Z,19.52
2022-09-15T14:50:45.777Z,19.53
2022-09-15T14:53:19.443Z,19.55
2022-09-15T14:56:04.367Z,19.81
2022-09-15T14:58:41.667Z,20.59
2022-09-15T15:01:20.307Z,21.91
2022-09-15T15:04:10.313Z,23.02
2022-09-15T15:07:09.756Z,23.17
2022-09-15T15:09:48.818Z,23.16
2022-09-15T15:12:23.611Z,23.39
2022-09-15T15:14:56.128Z,23.53
2022-09-15T15:17:49.654Z,23.23
2022-09-15T15:20:22.768Z,22.48
2022-09-15T15:23:22.259Z,21.72
2022-09-15T15:25:50.666Z,20.99
2022-09-15T15:28:35.677Z,20.50
2022-09-15T15:31:20.621Z,20.07
2022-09-15T15:33:57.079Z,19.75
2022-09-15T15:36:27.506Z,19.62
2022-09-15T15:39:05.128Z,19.64
2022-09-15T15:41:41.585Z,19.49
2022-09-15T15:44:15.623Z,19.53
2022-09-15T15:46:50.724Z,20.36
2022-09-15T15:49:20.874Z,20.72
2022-09-15T15:51:48.780Z,20.71
2022-09-15T15:54:16.553Z,20.70
2022-09-15T15:56:44.341Z,20.52
2022-09-15T15:59:13.053Z,20.18
2022-09-15T16:01:41.512Z,19.81
2022-09-15T16:04:09.890Z,19.47
2022-09-15T16:06:38.182Z,19.19
2022-09-15T16:09:06.264Z,18.92
2022-09-15T16:11:34.153Z,18.64
2022-09-15T16:14:01.767Z,18.37
2022-09-15T16:16:30.448Z,18.17
2022-09-15T16:18:58.079Z,18.03
2022-09-15T16:21:38.258Z,17.92
2022-09-15T16:24:11.366Z,17.80
2022-09-15T16:26:39.546Z,17.68
2022-09-15T16:29:07.317Z,17.58
2022-09-15T16:31:35.391Z,17.73
2022-09-15T16:34:03.150Z,17.84
2022-09-15T16:36:34.505Z,17.79
2022-09-15T16:39:02.245Z,17.70
2022-09-15T16:41:29.857Z,17.60
2022-09-15T16:43:57.525Z,17.49
2022-09-15T16:46:25.317Z,17.38
2022-09-15T16:48:53.162Z,17.27
2022-09-15T16:51:28.751Z,17.15
2022-09-15T16:53:58.698Z,16.98
2022-09-15T16:56:26.930Z,16.83
2022-09-15T16:59:00.127Z,16.68
2022-09-15T17:01:28.265Z,16.52
2022-09-15T17:03:55.842Z,16.37
2022-09-15T17:06:23.728Z,16.25
2022-09-15T17:08:51.348Z,16.18
2022-09-15T17:11:20.167Z,16.10
2022-09-15T17:13:47.917Z,16.00
2022-09-15T17:16:21.494Z,15.87
2022-09-15T17:18:49.389Z,15.74
2022-09-15T17:21:19.642Z,15.64
2022-09-15T17:23:49.441Z,15.57
2022-09-15T17:26:24.633Z,15.49
2022-09-15T17:28:55.777Z,15.43
2022-09-15T17:31:24.948Z,15.36
2022-09-15T17:33:52.776Z,15.29
2022-09-15T17:36:20.542Z,15.25
2022-09-15T17:38:48.953Z,15.23
2022-09-15T17:41:19.330Z,15.20
2022-09-15T17:43:47.977Z,15.15
2022-09-15T17:46:15.663Z,15.09
2022-09-15T17:48:43.416Z,15.04
2022-09-15T17:51:17.056Z,15.00
2022-09-15T17:53:47.719Z,14.97
2022-09-15T17:56:15.404Z,14.94
2022-09-15T17:58:44.434Z,14.94
2022-09-15T18:01:14.056Z,14.94
2022-09-15T18:03:44.041Z,14.92
2022-09-15T18:06:12.696Z,14.90
2022-09-15T18:08:40.664Z,14.89
2022-09-15T18:11:10.758Z,14.84
2022-09-15T18:13:38.393Z,14.80
2022-09-15T18:16:11.277Z,14.76
2022-09-15T18:18:40.822Z,14.71
2022-09-15T18:21:24.579Z,14.65
2022-09-15T18:23:52.669Z,14.58
2022-09-15T18:26:24.024Z,14.52
2022-09-15T18:28:54.808Z,14.47
2022-09-15T18:31:22.843Z,14.43
2022-09-15T18:33:50.605Z,14.42
2022-09-15T18:36:18.255Z,14.39
2022-09-15T18:38:46.051Z,14.36
2022-09-15T18:41:13.724Z,14.32
2022-09-15T18:43:41.375Z,14.28
2022-09-15T18:46:09.253Z,14.23
2022-09-15T18:48:37.075Z,14.17
2022-09-15T18:51:08.196Z,14.09
2022-09-15T18:53:37.340Z,14.00
2022-09-15T18:56:13.139Z,13.90
2022-09-15T18:58:40.981Z,13.79
2022-09-15T19:01:08.812Z,13.68
2022-09-15T19:03:37.780Z,13.59
2022-09-15T19:06:06.967Z,13.51
2022-09-15T19:08:36.425Z,13.44
2022-09-15T19:11:04.410Z,13.37
2022-09-15T19:13:32.559Z,13.31
2022-09-15T19:16:05.568Z,13.25
2022-09-15T19:18:34.415Z,13.19
2022-09-15T19:21:10.772Z,13.12
2022-09-15T19:23:39.124Z,13.03
2022-09-15T19:26:09.180Z,12.94
2022-09-15T19:28:36.824Z,12.87
2022-09-15T19:31:05.226Z,12.82
2022-09-15T19:33:34.917Z,12.79
2022-09-15T19:36:27.010Z,12.76
2022-09-15T19:38:53.066Z,12.72
2022-09-15T19:41:20.837Z,12.68
2022-09-15T19:43:48.524Z,12.65
2022-09-15T19:46:23.902Z,12.60
2022-09-15T19:48:52.634Z,12.57
2022-09-15T19:51:21.575Z,12.55
2022-09-15T19:53:53.324Z,12.53
2022-09-15T19:56:23.064Z,12.51
2022-09-15T19:58:50.782Z,12.46
2022-09-15T20:01:18.993Z,12.40
2022-09-15T20:03:46.693Z,12.35
2022-09-15T20:06:14.375Z,12.30
2022-09-15T20:08:44.501Z,12.24
2022-09-15T20:11:12.690Z,12.19
2022-09-15T20:13:44.144Z,12.14
2022-09-15T20:16:18.121Z,12.08
2022-09-15T20:18:47.810Z,12.02
2022-09-15T20:21:32.515Z,11.97
2022-09-15T20:24:07.650Z,11.91
2022-09-15T20:26:35.270Z,11.87
2022-09-15T20:29:04.063Z,11.85
2022-09-15T20:31:34.509Z,11.84
2022-09-15T20:34:02.469Z,11.81
2022-09-15T20:36:34.046Z,11.80
2022-09-15T20:39:03.975Z,11.74
2022-09-15T20:41:32.077Z,11.69
2022-09-15T20:44:00.249Z,11.65
2022-09-15T20:46:30.126Z,11.64
2022-09-15T20:48:57.717Z,11.61
2022-09-15T20:51:29.395Z,11.60
2022-09-15T20:53:59.286Z,11.59
2022-09-15T20:56:29.216Z,11.55
2022-09-15T20:58:58.788Z,11.51
2022-09-15T21:01:34.166Z,11.47
2022-09-15T21:04:02.288Z,11.41
2022-09-15T21:06:31.497Z,11.35
2022-09-15T21:08:59.200Z,11.30
2022-09-15T21:11:28.475Z,11.27
2022-09-15T21:13:57.120Z,11.26
2022-09-15T21:16:28.107Z,11.26
2022-09-15T21:18:58.407Z,11.25
2022-09-15T21:21:29.762Z,11.23
2022-09-15T21:24:03.936Z,11.21
2022-09-15T21:26:34.828Z,11.18
2022-09-15T21:29:02.744Z,11.15
2022-09-15T21:31:32.961Z,11.12
2022-09-15T21:34:00.854Z,11.08
2022-09-15T21:36:30.375Z,11.04
2022-09-15T21:38:59.643Z,11.02
2022-09-15T21:41:31.673Z,11.00
2022-09-15T21:44:01.477Z,10.99
2022-09-15T21:46:30.645Z,10.99
2022-09-15T21:48:59.681Z,10.97
2022-09-15T21:51:29.171Z,10.95
2022-09-15T21:53:58.639Z,10.92
2022-09-15T21:56:29.052Z,10.90
2022-09-15T21:58:57.156Z,10.87
2022-09-15T22:01:26.472Z,10.86
2022-09-15T22:03:59.476Z,10.88
2022-09-15T22:06:31.939Z,10.93
2022-09-15T22:09:01.559Z,10.99
2022-09-15T22:11:29.284Z,11.06
2022-09-15T22:13:57.001Z,11.12
2022-09-15T22:16:25.458Z,11.19
2022-09-15T22:18:53.626Z,11.26
2022-09-15T22:21:23.891Z,11.32
2022-09-15T22:23:54.476Z,11.33
2022-09-15T22:26:25.586Z,11.34
2022-09-15T22:28:54.029Z,11.32
2022-09-15T22:31:23.227Z,11.31
2022-09-15T22:34:06.865Z,11.29
2022-09-15T22:39:59.505Z,11.27
2022-09-15T22:42:27.655Z,11.24
2022-09-15T22:44:55.298Z,11.21
2022-09-15T22:47:22.955Z,11.19
2022-09-15T22:49:50.628Z,11.18
2022-09-15T22:52:18.370Z,11.18
2022-09-15T22:54:46.165Z,11.16
2022-09-15T22:57:14.341Z,11.14
2022-09-15T22:59:42.077Z,11.11
2022-09-15T23:02:09.915Z,11.09
2022-09-15T23:04:37.750Z,11.11
2022-09-15T23:07:05.877Z,11.14
2022-09-15T23:09:34.192Z,11.17
2022-09-15T23:12:02.006Z,11.21
2022-09-15T23:14:29.651Z,11.26
2022-09-15T23:16:57.270Z,11.29
2022-09-15T23:19:24.926Z,11.33
2022-09-15T23:21:52.584Z,11.36
2022-09-15T23:24:20.513Z,11.38
2022-09-15T23:26:48.130Z,11.40
2022-09-15T23:29:15.841Z,11.43
2022-09-15T23:31:43.513Z,11.46
2022-09-15T23:34:11.184Z,11.49
2022-09-15T23:36:38.841Z,11.51
2022-09-15T23:39:06.706Z,11.50
2022-09-15T23:41:34.546Z,11.50
2022-09-15T23:44:03.380Z,11.51
2022-09-15T23:46:32.184Z,11.50
2022-09-15T23:49:00.081Z,11.49
2022-09-15T23:51:27.916Z,11.47
2022-09-15T23:53:55.648Z,11.46
2022-09-15T23:56:23.388Z,11.47
2022-09-15T23:58:51.027Z,11.47
